sensor_id;sensor_type;location;lat;lon;timestamp;temperature;humidity
2174;DHT22;1093;51.424;11.764;2024-02-21T00:01:36;9.00;1.40
2174;DHT22;1093;51.424;11.764;2024-02-21T00:04:03;8.90;1.40
2174;DHT22;1093;51.424;11.764;2024-02-21T00:06:32;9.00;1.40
2174;DHT22;1093;51.424;11.764;2024-02-21T00:08:59;8.90;1.40
2174;DHT22;1093;51.424;11.764;2024-02-21T00:11:28;9.00;1.40
2174;DHT22;1093;51.424;11.764;2024-02-21T00:13:55;9.00;1.40
2174;DHT22;1093;51.424;11.764;2024-02-21T00:16:22;9.00;1.40
2174;DHT22;1093;51.424;11.764;2024-02-21T00:18:49;8.90;1.40
2174;DHT22;1093;51.424;11.764;2024-02-21T00:21:16;8.90;1.40
2174;DHT22;1093;51.424;11.764;2024-02-21T00:23:45;9.00;1.40
2174;DHT22;1093;51.424;11.764;2024-02-21T00:26:12;8.90;1.40
2174;DHT22;1093;51.424;11.764;2024-02-21T00:28:39;9.00;1.40
2174;DHT22;1093;51.424;11.764;2024-02-21T00:31:06;8.90;1.40
2174;DHT22;1093;51.424;11.764;2024-02-21T00:33:33;9.00;1.40
2174;DHT22;1093;51.424;11.764;2024-02-21T00:35:59;8.90;1.40
2174;DHT22;1093;51.424;11.764;2024-02-21T00:38:26;8.90;1.40
2174;DHT22;1093;51.424;11.764;2024-02-21T00:40:55;8.90;1.40
2174;DHT22;1093;51.424;11.764;2024-02-21T00:43:22;8.90;1.40
2174;DHT22;1093;51.424;11.764;2024-02-21T00:45:50;8.90;1.40
2174;DHT22;1093;51.424;11.764;2024-02-21T00:48:16;8.90;1.40
2174;DHT22;1093;51.424;11.764;2024-02-21T00:50:43;8.90;1.40
2174;DHT22;1093;51.424;11.764;2024-02-21T00:53:29;8.90;1.40
2174;DHT22;1093;51.424;11.764;2024-02-21T00:55:57;8.80;1.40
2174;DHT22;1093;51.424;11.764;2024-02-21T00:58:24;8.80;1.40
2174;DHT22;1093;51.424;11.764;2024-02-21T01:00:51;8.80;1.40
2174;DHT22;1093;51.424;11.764;2024-02-21T01:03:18;8.80;1.40
2174;DHT22;1093;51.424;11.764;2024-02-21T01:05:46;8.80;1.40
2174;DHT22;1093;51.424;11.764;2024-02-21T01:08:13;8.80;1.40
2174;DHT22;1093;51.424;11.764;2024-02-21T01:10:40;8.80;1.40
2174;DHT22;1093;51.424;11.764;2024-02-21T01:13:08;8.90;1.40
2174;DHT22;1093;51.424;11.764;2024-02-21T01:15:35;8.80;1.40
2174;DHT22;1093;51.424;11.764;2024-02-21T01:18:02;8.90;1.40
2174;DHT22;1093;51.424;11.764;2024-02-21T01:20:30;8.90;1.40
2174;DHT22;1093;51.424;11.764;2024-02-21T01:22:58;8.80;1.40
2174;DHT22;1093;51.424;11.764;2024-02-21T01:25:25;8.90;1.40
2174;DHT22;1093;51.424;11.764;2024-02-21T01:27:51;8.90;1.40
2174;DHT22;1093;51.424;11.764;2024-02-21T01:30:20;8.90;1.40
2174;DHT22;1093;51.424;11.764;2024-02-21T01:32:47;8.90;1.40
2174;DHT22;1093;51.424;11.764;2024-02-21T01:35:14;8.80;1.40
2174;DHT22;1093;51.424;11.764;2024-02-21T01:37:41;8.80;1.40
2174;DHT22;1093;51.424;11.764;2024-02-21T01:40:09;8.90;1.40
2174;DHT22;1093;51.424;11.764;2024-02-21T01:42:38;8.80;1.40
2174;DHT22;1093;51.424;11.764;2024-02-21T01:45:08;8.80;1.40
2174;DHT22;1093;51.424;11.764;2024-02-21T01:47:39;8.80;1.40
2174;DHT22;1093;51.424;11.764;2024-02-21T01:50:07;8.70;1.40
2174;DHT22;1093;51.424;11.764;2024-02-21T01:52:36;8.80;1.40
2174;DHT22;1093;51.424;11.764;2024-02-21T01:55:07;8.80;1.40
2174;DHT22;1093;51.424;11.764;2024-02-21T01:57:36;8.80;1.40
2174;DHT22;1093;51.424;11.764;2024-02-21T02:00:05;8.80;1.40
2174;DHT22;1093;51.424;11.764;2024-02-21T02:02:32;8.70;1.40
2174;DHT22;1093;51.424;11.764;2024-02-21T02:05:01;8.70;1.40
2174;DHT22;1093;51.424;11.764;2024-02-21T02:07:28;8.70;1.40
2174;DHT22;1093;51.424;11.764;2024-02-21T02:09:54;8.60;1.40
2174;DHT22;1093;51.424;11.764;2024-02-21T02:12:22;8.60;1.40
2174;DHT22;1093;51.424;11.764;2024-02-21T02:14:57;8.60;1.40
2174;DHT22;1093;51.424;11.764;2024-02-21T02:17:24;8.70;1.40
2174;DHT22;1093;51.424;11.764;2024-02-21T02:19:51;8.70;1.40
2174;DHT22;1093;51.424;11.764;2024-02-21T02:22:23;8.70;1.40
2174;DHT22;1093;51.424;11.764;2024-02-21T02:24:52;8.70;1.40
2174;DHT22;1093;51.424;11.764;2024-02-21T02:27:19;8.70;1.40
2174;DHT22;1093;51.424;11.764;2024-02-21T02:29:48;8.80;1.40
2174;DHT22;1093;51.424;11.764;2024-02-21T02:32:15;8.80;1.40
2174;DHT22;1093;51.424;11.764;2024-02-21T02:34:42;8.80;1.40
2174;DHT22;1093;51.424;11.764;2024-02-21T02:37:08;8.90;1.40
2174;DHT22;1093;51.424;11.764;2024-02-21T02:39:35;8.80;1.40
2174;DHT22;1093;51.424;11.764;2024-02-21T02:42:05;8.80;1.40
2174;DHT22;1093;51.424;11.764;2024-02-21T02:44:32;8.80;1.40
2174;DHT22;1093;51.424;11.764;2024-02-21T02:46:58;8.80;1.40
2174;DHT22;1093;51.424;11.764;2024-02-21T02:49:25;8.80;1.40
2174;DHT22;1093;51.424;11.764;2024-02-21T02:51:52;8.80;1.40
2174;DHT22;1093;51.424;11.764;2024-02-21T02:54:19;8.70;1.40
2174;DHT22;1093;51.424;11.764;2024-02-21T02:56:46;8.80;1.40
2174;DHT22;1093;51.424;11.764;2024-02-21T02:59:14;8.80;1.40
2174;DHT22;1093;51.424;11.764;2024-02-21T03:01:41;8.70;1.40
2174;DHT22;1093;51.424;11.764;2024-02-21T03:04:07;8.70;1.40
2174;DHT22;1093;51.424;11.764;2024-02-21T03:06:34;8.80;1.40
2174;DHT22;1093;51.424;11.764;2024-02-21T03:09:01;8.70;1.40
2174;DHT22;1093;51.424;11.764;2024-02-21T03:11:34;8.70;1.40
2174;DHT22;1093;51.424;11.764;2024-02-21T03:14:00;8.80;1.40
2174;DHT22;1093;51.424;11.764;2024-02-21T03:16:29;8.70;1.40
2174;DHT22;1093;51.424;11.764;2024-02-21T03:18:56;8.70;1.40
2174;DHT22;1093;51.424;11.764;2024-02-21T03:21:23;8.70;1.40
2174;DHT22;1093;51.424;11.764;2024-02-21T03:23:50;8.70;1.40
2174;DHT22;1093;51.424;11.764;2024-02-21T03:26:17;8.60;1.40
2174;DHT22;1093;51.424;11.764;2024-02-21T03:28:44;8.50;1.40
2174;DHT22;1093;51.424;11.764;2024-02-21T03:31:12;8.60;1.40
2174;DHT22;1093;51.424;11.764;2024-02-21T03:33:42;8.50;1.40
2174;DHT22;1093;51.424;11.764;2024-02-21T03:36:13;8.40;1.40
2174;DHT22;1093;51.424;11.764;2024-02-21T03:38:40;8.50;1.40
2174;DHT22;1093;51.424;11.764;2024-02-21T03:41:07;8.40;1.40
2174;DHT22;1093;51.424;11.764;2024-02-21T03:43:34;8.50;1.40
2174;DHT22;1093;51.424;11.764;2024-02-21T03:46:01;8.50;1.40
2174;DHT22;1093;51.424;11.764;2024-02-21T03:48:28;8.50;1.40
2174;DHT22;1093;51.424;11.764;2024-02-21T03:50:57;8.50;1.40
2174;DHT22;1093;51.424;11.764;2024-02-21T03:53:26;8.50;1.40
2174;DHT22;1093;51.424;11.764;2024-02-21T03:55:54;8.50;1.40
2174;DHT22;1093;51.424;11.764;2024-02-21T03:58:21;8.50;1.40
2174;DHT22;1093;51.424;11.764;2024-02-21T04:00:48;8.50;1.40
2174;DHT22;1093;51.424;11.764;2024-02-21T04:03:15;8.50;1.40
2174;DHT22;1093;51.424;11.764;2024-02-21T04:05:42;8.50;1.40
2174;DHT22;1093;51.424;11.764;2024-02-21T04:08:13;8.50;1.40
2174;DHT22;1093;51.424;11.764;2024-02-21T04:10:40;8.50;1.40
2174;DHT22;1093;51.424;11.764;2024-02-21T04:13:07;8.60;1.40
2174;DHT22;1093;51.424;11.764;2024-02-21T04:15:34;8.50;1.40
2174;DHT22;1093;51.424;11.764;2024-02-21T04:18:01;8.50;1.40
2174;DHT22;1093;51.424;11.764;2024-02-21T04:20:29;8.50;1.40
2174;DHT22;1093;51.424;11.764;2024-02-21T04:22:56;8.50;1.40
2174;DHT22;1093;51.424;11.764;2024-02-21T04:25:24;8.50;1.40
2174;DHT22;1093;51.424;11.764;2024-02-21T04:27:51;8.50;1.40
2174;DHT22;1093;51.424;11.764;2024-02-21T04:30:19;8.50;1.40
2174;DHT22;1093;51.424;11.764;2024-02-21T04:32:46;8.50;1.40
2174;DHT22;1093;51.424;11.764;2024-02-21T04:35:13;8.50;1.40
2174;DHT22;1093;51.424;11.764;2024-02-21T04:37:39;8.50;1.40
2174;DHT22;1093;51.424;11.764;2024-02-21T04:40:07;8.50;1.40
2174;DHT22;1093;51.424;11.764;2024-02-21T04:42:35;8.50;1.40
2174;DHT22;1093;51.424;11.764;2024-02-21T04:45:03;8.50;1.40
2174;DHT22;1093;51.424;11.764;2024-02-21T04:47:30;8.50;1.40
2174;DHT22;1093;51.424;11.764;2024-02-21T04:49:57;8.50;1.40
2174;DHT22;1093;51.424;11.764;2024-02-21T04:52:26;8.50;1.40
2174;DHT22;1093;51.424;11.764;2024-02-21T04:54:53;8.50;1.40
2174;DHT22;1093;51.424;11.764;2024-02-21T04:57:19;8.50;1.40
2174;DHT22;1093;51.424;11.764;2024-02-21T04:59:47;8.50;1.40
2174;DHT22;1093;51.424;11.764;2024-02-21T05:02:14;8.50;1.40
2174;DHT22;1093;51.424;11.764;2024-02-21T05:04:42;8.50;1.40
2174;DHT22;1093;51.424;11.764;2024-02-21T05:07:09;8.40;1.40
2174;DHT22;1093;51.424;11.764;2024-02-21T05:09:37;8.40;1.40
2174;DHT22;1093;51.424;11.764;2024-02-21T05:12:05;8.40;1.40
2174;DHT22;1093;51.424;11.764;2024-02-21T05:14:32;8.30;1.40
2174;DHT22;1093;51.424;11.764;2024-02-21T05:17:01;8.30;1.40
2174;DHT22;1093;51.424;11.764;2024-02-21T05:19:28;8.20;1.40
2174;DHT22;1093;51.424;11.764;2024-02-21T05:21:55;8.20;1.40
2174;DHT22;1093;51.424;11.764;2024-02-21T05:24:22;8.20;1.40
2174;DHT22;1093;51.424;11.764;2024-02-21T05:26:49;8.20;1.40
2174;DHT22;1093;51.424;11.764;2024-02-21T05:29:16;8.20;1.40
2174;DHT22;1093;51.424;11.764;2024-02-21T05:31:55;8.10;1.40
2174;DHT22;1093;51.424;11.764;2024-02-21T05:34:24;8.10;1.40
2174;DHT22;1093;51.424;11.764;2024-02-21T05:36:51;8.10;1.40
2174;DHT22;1093;51.424;11.764;2024-02-21T05:39:19;8.10;1.40
2174;DHT22;1093;51.424;11.764;2024-02-21T05:41:48;8.10;1.40
2174;DHT22;1093;51.424;11.764;2024-02-21T05:44:16;8.10;1.40
2174;DHT22;1093;51.424;11.764;2024-02-21T05:46:43;8.10;1.40
2174;DHT22;1093;51.424;11.764;2024-02-21T05:49:09;8.10;1.40
2174;DHT22;1093;51.424;11.764;2024-02-21T05:51:38;8.10;1.40
2174;DHT22;1093;51.424;11.764;2024-02-21T05:54:06;8.10;1.40
2174;DHT22;1093;51.424;11.764;2024-02-21T05:56:33;8.10;1.40
2174;DHT22;1093;51.424;11.764;2024-02-21T05:59:07;8.10;1.40
2174;DHT22;1093;51.424;11.764;2024-02-21T06:01:37;8.10;1.40
2174;DHT22;1093;51.424;11.764;2024-02-21T06:04:05;8.00;1.40
2174;DHT22;1093;51.424;11.764;2024-02-21T06:06:35;8.10;1.40
2174;DHT22;1093;51.424;11.764;2024-02-21T06:09:10;8.10;1.40
2174;DHT22;1093;51.424;11.764;2024-02-21T06:11:39;8.20;1.40
2174;DHT22;1093;51.424;11.764;2024-02-21T06:14:21;8.20;1.40
2174;DHT22;1093;51.424;11.764;2024-02-21T06:20:11;8.30;1.40
2174;DHT22;1093;51.424;11.764;2024-02-21T06:22:40;8.30;1.40
2174;DHT22;1093;51.424;11.764;2024-02-21T06:25:24;8.30;1.40
2174;DHT22;1093;51.424;11.764;2024-02-21T06:27:50;8.30;1.40
2174;DHT22;1093;51.424;11.764;2024-02-21T06:30:18;8.30;1.40
2174;DHT22;1093;51.424;11.764;2024-02-21T06:32:46;8.30;1.40
2174;DHT22;1093;51.424;11.764;2024-02-21T06:35:13;8.30;1.40
2174;DHT22;1093;51.424;11.764;2024-02-21T06:37:41;8.30;1.40
2174;DHT22;1093;51.424;11.764;2024-02-21T06:40:12;8.30;1.40
2174;DHT22;1093;51.424;11.764;2024-02-21T06:42:40;8.30;1.40
2174;DHT22;1093;51.424;11.764;2024-02-21T06:45:09;8.40;1.40
2174;DHT22;1093;51.424;11.764;2024-02-21T06:47:37;8.30;1.40
2174;DHT22;1093;51.424;11.764;2024-02-21T06:50:14;8.30;1.40
2174;DHT22;1093;51.424;11.764;2024-02-21T06:52:42;8.40;1.40
2174;DHT22;1093;51.424;11.764;2024-02-21T06:55:09;8.40;1.40
2174;DHT22;1093;51.424;11.764;2024-02-21T06:57:41;8.50;1.40
2174;DHT22;1093;51.424;11.764;2024-02-21T07:00:11;8.60;1.40
2174;DHT22;1093;51.424;11.764;2024-02-21T07:02:41;8.50;1.40
2174;DHT22;1093;51.424;11.764;2024-02-21T07:05:11;8.60;1.40
2174;DHT22;1093;51.424;11.764;2024-02-21T07:07:38;8.60;1.40
2174;DHT22;1093;51.424;11.764;2024-02-21T07:10:10;8.60;1.40
2174;DHT22;1093;51.424;11.764;2024-02-21T07:12:55;8.60;1.40
2174;DHT22;1093;51.424;11.764;2024-02-21T07:15:22;8.60;1.40
2174;DHT22;1093;51.424;11.764;2024-02-21T07:17:52;8.60;1.40
2174;DHT22;1093;51.424;11.764;2024-02-21T07:20:25;8.60;1.40
2174;DHT22;1093;51.424;11.764;2024-02-21T07:22:51;8.60;1.40
2174;DHT22;1093;51.424;11.764;2024-02-21T07:25:19;8.70;1.40
2174;DHT22;1093;51.424;11.764;2024-02-21T07:27:51;8.70;1.40
2174;DHT22;1093;51.424;11.764;2024-02-21T07:30:21;8.70;1.40
2174;DHT22;1093;51.424;11.764;2024-02-21T07:32:50;8.80;1.40
2174;DHT22;1093;51.424;11.764;2024-02-21T07:35:17;8.80;1.40
2174;DHT22;1093;51.424;11.764;2024-02-21T07:37:47;8.80;1.40
2174;DHT22;1093;51.424;11.764;2024-02-21T07:40:15;8.80;1.40
2174;DHT22;1093;51.424;11.764;2024-02-21T07:42:43;8.80;1.40
2174;DHT22;1093;51.424;11.764;2024-02-21T07:45:10;8.80;1.40
2174;DHT22;1093;51.424;11.764;2024-02-21T07:47:40;8.80;1.40
2174;DHT22;1093;51.424;11.764;2024-02-21T07:50:10;8.80;1.40
2174;DHT22;1093;51.424;11.764;2024-02-21T07:52:37;8.90;1.40
2174;DHT22;1093;51.424;11.764;2024-02-21T07:55:04;8.90;1.40
2174;DHT22;1093;51.424;11.764;2024-02-21T07:57:31;8.90;1.40
2174;DHT22;1093;51.424;11.764;2024-02-21T07:59:59;8.90;1.40
2174;DHT22;1093;51.424;11.764;2024-02-21T08:02:26;9.00;1.40
2174;DHT22;1093;51.424;11.764;2024-02-21T08:05:04;9.00;1.40
2174;DHT22;1093;51.424;11.764;2024-02-21T08:07:33;9.00;1.40
2174;DHT22;1093;51.424;11.764;2024-02-21T08:10:02;9.00;1.40
2174;DHT22;1093;51.424;11.764;2024-02-21T08:12:29;9.00;1.40
2174;DHT22;1093;51.424;11.764;2024-02-21T08:14:58;9.00;1.40
2174;DHT22;1093;51.424;11.764;2024-02-21T08:17:26;9.00;1.40
2174;DHT22;1093;51.424;11.764;2024-02-21T08:19:54;9.00;1.40
2174;DHT22;1093;51.424;11.764;2024-02-21T08:22:23;9.10;1.40
2174;DHT22;1093;51.424;11.764;2024-02-21T08:24:54;9.00;1.40
2174;DHT22;1093;51.424;11.764;2024-02-21T08:27:24;9.10;1.40
2174;DHT22;1093;51.424;11.764;2024-02-21T08:29:54;9.20;1.40
2174;DHT22;1093;51.424;11.764;2024-02-21T08:32:25;9.20;1.40
2174;DHT22;1093;51.424;11.764;2024-02-21T08:34:57;9.20;1.40
2174;DHT22;1093;51.424;11.764;2024-02-21T08:37:27;9.20;1.40
2174;DHT22;1093;51.424;11.764;2024-02-21T08:39:53;9.30;1.40
2174;DHT22;1093;51.424;11.764;2024-02-21T08:42:24;9.40;1.40
2174;DHT22;1093;51.424;11.764;2024-02-21T08:44:53;9.40;1.40
2174;DHT22;1093;51.424;11.764;2024-02-21T08:47:24;9.40;1.40
2174;DHT22;1093;51.424;11.764;2024-02-21T08:49:59;9.40;1.40
2174;DHT22;1093;51.424;11.764;2024-02-21T08:52:28;9.40;1.40
2174;DHT22;1093;51.424;11.764;2024-02-21T08:55:07;9.40;1.40
2174;DHT22;1093;51.424;11.764;2024-02-21T08:57:41;9.50;1.40
2174;DHT22;1093;51.424;11.764;2024-02-21T09:00:09;9.50;1.40
2174;DHT22;1093;51.424;11.764;2024-02-21T09:02:39;9.70;1.40
2174;DHT22;1093;51.424;11.764;2024-02-21T09:05:14;9.70;1.40
2174;DHT22;1093;51.424;11.764;2024-02-21T09:07:42;9.70;1.40
2174;DHT22;1093;51.424;11.764;2024-02-21T09:10:09;9.80;1.40
2174;DHT22;1093;51.424;11.764;2024-02-21T09:12:36;9.90;1.40
2174;DHT22;1093;51.424;11.764;2024-02-21T09:15:06;9.90;1.40
2174;DHT22;1093;51.424;11.764;2024-02-21T09:17:34;9.90;1.40
2174;DHT22;1093;51.424;11.764;2024-02-21T09:20:02;9.90;1.40
2174;DHT22;1093;51.424;11.764;2024-02-21T09:22:31;10.00;1.40
2174;DHT22;1093;51.424;11.764;2024-02-21T09:25:04;10.10;1.40
2174;DHT22;1093;51.424;11.764;2024-02-21T09:27:32;10.00;1.40
2174;DHT22;1093;51.424;11.764;2024-02-21T09:29:59;10.10;1.40
2174;DHT22;1093;51.424;11.764;2024-02-21T09:32:27;10.20;1.40
2174;DHT22;1093;51.424;11.764;2024-02-21T09:34:58;10.20;1.40
2174;DHT22;1093;51.424;11.764;2024-02-21T09:37:34;10.20;1.40
2174;DHT22;1093;51.424;11.764;2024-02-21T09:40:20;10.20;1.40
2174;DHT22;1093;51.424;11.764;2024-02-21T09:43:02;10.20;1.40
2174;DHT22;1093;51.424;11.764;2024-02-21T09:45:38;10.20;1.40
2174;DHT22;1093;51.424;11.764;2024-02-21T09:48:40;10.20;1.40
2174;DHT22;1093;51.424;11.764;2024-02-21T09:51:10;10.30;1.40
2174;DHT22;1093;51.424;11.764;2024-02-21T09:53:42;10.20;1.40
2174;DHT22;1093;51.424;11.764;2024-02-21T09:56:13;10.30;1.40
2174;DHT22;1093;51.424;11.764;2024-02-21T09:58:41;10.30;1.40
2174;DHT22;1093;51.424;11.764;2024-02-21T10:01:08;10.30;1.40
2174;DHT22;1093;51.424;11.764;2024-02-21T10:03:36;10.40;1.40
2174;DHT22;1093;51.424;11.764;2024-02-21T10:06:05;10.40;1.40
2174;DHT22;1093;51.424;11.764;2024-02-21T10:08:36;10.40;1.40
2174;DHT22;1093;51.424;11.764;2024-02-21T10:11:05;10.40;1.40
2174;DHT22;1093;51.424;11.764;2024-02-21T10:13:35;10.40;1.40
2174;DHT22;1093;51.424;11.764;2024-02-21T10:16:09;10.40;1.40
2174;DHT22;1093;51.424;11.764;2024-02-21T10:18:36;10.40;1.40
2174;DHT22;1093;51.424;11.764;2024-02-21T10:21:09;10.50;1.40
2174;DHT22;1093;51.424;11.764;2024-02-21T10:23:47;10.60;1.40
2174;DHT22;1093;51.424;11.764;2024-02-21T10:26:22;10.60;1.40
2174;DHT22;1093;51.424;11.764;2024-02-21T10:28:51;10.70;1.40
2174;DHT22;1093;51.424;11.764;2024-02-21T10:31:23;10.60;1.40
2174;DHT22;1093;51.424;11.764;2024-02-21T10:33:55;10.70;1.40
2174;DHT22;1093;51.424;11.764;2024-02-21T10:36:23;10.80;1.40
2174;DHT22;1093;51.424;11.764;2024-02-21T10:39:04;10.80;1.40
2174;DHT22;1093;51.424;11.764;2024-02-21T10:41:37;10.90;1.40
2174;DHT22;1093;51.424;11.764;2024-02-21T10:44:10;10.90;1.40
2174;DHT22;1093;51.424;11.764;2024-02-21T10:46:42;10.90;1.40
2174;DHT22;1093;51.424;11.764;2024-02-21T10:49:15;11.00;1.40
2174;DHT22;1093;51.424;11.764;2024-02-21T10:51:46;11.00;1.40
2174;DHT22;1093;51.424;11.764;2024-02-21T10:54:24;11.00;1.40
2174;DHT22;1093;51.424;11.764;2024-02-21T10:57:01;11.10;1.40
2174;DHT22;1093;51.424;11.764;2024-02-21T10:59:31;11.10;1.40
2174;DHT22;1093;51.424;11.764;2024-02-21T11:02:00;11.20;1.40
2174;DHT22;1093;51.424;11.764;2024-02-21T11:04:32;11.20;1.40
2174;DHT22;1093;51.424;11.764;2024-02-21T11:07:03;11.20;1.40
2174;DHT22;1093;51.424;11.764;2024-02-21T11:09:33;11.40;1.40
2174;DHT22;1093;51.424;11.764;2024-02-21T11:12:05;11.30;1.40
2174;DHT22;1093;51.424;11.764;2024-02-21T11:14:32;11.30;1.40
2174;DHT22;1093;51.424;11.764;2024-02-21T11:17:02;11.30;1.40
2174;DHT22;1093;51.424;11.764;2024-02-21T11:19:31;11.30;1.40
2174;DHT22;1093;51.424;11.764;2024-02-21T11:22:13;11.30;1.40
2174;DHT22;1093;51.424;11.764;2024-02-21T11:25:06;11.30;1.40
2174;DHT22;1093;51.424;11.764;2024-02-21T11:27:38;11.30;1.40
2174;DHT22;1093;51.424;11.764;2024-02-21T11:30:11;11.30;1.40
2174;DHT22;1093;51.424;11.764;2024-02-21T11:32:43;11.40;1.40
2174;DHT22;1093;51.424;11.764;2024-02-21T11:35:19;11.30;1.40
2174;DHT22;1093;51.424;11.764;2024-02-21T11:37:46;11.30;1.40
2174;DHT22;1093;51.424;11.764;2024-02-21T11:40:22;11.30;1.40
2174;DHT22;1093;51.424;11.764;2024-02-21T11:42:50;11.40;1.40
2174;DHT22;1093;51.424;11.764;2024-02-21T11:45:18;11.40;1.40
2174;DHT22;1093;51.424;11.764;2024-02-21T11:47:47;11.40;1.40
2174;DHT22;1093;51.424;11.764;2024-02-21T11:50:15;11.40;1.40
2174;DHT22;1093;51.424;11.764;2024-02-21T11:52:41;11.50;1.40
2174;DHT22;1093;51.424;11.764;2024-02-21T11:55:09;11.50;1.40
2174;DHT22;1093;51.424;11.764;2024-02-21T11:57:41;11.50;1.40
2174;DHT22;1093;51.424;11.764;2024-02-21T12:03:29;11.30;1.40
2174;DHT22;1093;51.424;11.764;2024-02-21T12:05:57;11.30;1.40
2174;DHT22;1093;51.424;11.764;2024-02-21T12:08:25;11.30;1.40
2174;DHT22;1093;51.424;11.764;2024-02-21T12:10:54;11.30;1.40
2174;DHT22;1093;51.424;11.764;2024-02-21T12:13:23;11.30;1.40
2174;DHT22;1093;51.424;11.764;2024-02-21T12:15:50;11.30;1.40
2174;DHT22;1093;51.424;11.764;2024-02-21T12:18:17;11.40;1.40
2174;DHT22;1093;51.424;11.764;2024-02-21T12:20:48;11.30;1.40
2174;DHT22;1093;51.424;11.764;2024-02-21T12:23:14;11.30;1.40
2174;DHT22;1093;51.424;11.764;2024-02-21T12:25:41;11.30;1.40
2174;DHT22;1093;51.424;11.764;2024-02-21T12:28:09;11.40;1.40
2174;DHT22;1093;51.424;11.764;2024-02-21T12:30:36;11.50;1.40
2174;DHT22;1093;51.424;11.764;2024-02-21T12:33:05;11.50;1.40
2174;DHT22;1093;51.424;11.764;2024-02-21T12:35:32;11.50;1.40
2174;DHT22;1093;51.424;11.764;2024-02-21T12:38:00;11.50;1.40
2174;DHT22;1093;51.424;11.764;2024-02-21T12:40:27;11.50;1.40
2174;DHT22;1093;51.424;11.764;2024-02-21T12:42:58;11.50;1.40
2174;DHT22;1093;51.424;11.764;2024-02-21T12:45:25;11.50;1.40
2174;DHT22;1093;51.424;11.764;2024-02-21T12:47:52;11.50;1.40
2174;DHT22;1093;51.424;11.764;2024-02-21T12:50:19;11.50;1.40
2174;DHT22;1093;51.424;11.764;2024-02-21T12:52:48;11.60;1.40
2174;DHT22;1093;51.424;11.764;2024-02-21T12:55:17;11.60;1.40
2174;DHT22;1093;51.424;11.764;2024-02-21T12:57:44;11.60;1.40
2174;DHT22;1093;51.424;11.764;2024-02-21T13:00:14;11.50;1.40
2174;DHT22;1093;51.424;11.764;2024-02-21T13:02:41;11.50;1.40
2174;DHT22;1093;51.424;11.764;2024-02-21T13:05:08;11.50;1.40
2174;DHT22;1093;51.424;11.764;2024-02-21T13:07:35;11.60;1.40
2174;DHT22;1093;51.424;11.764;2024-02-21T13:10:02;11.60;1.40
2174;DHT22;1093;51.424;11.764;2024-02-21T13:12:32;11.60;1.40
2174;DHT22;1093;51.424;11.764;2024-02-21T13:14:59;11.60;1.40
2174;DHT22;1093;51.424;11.764;2024-02-21T13:17:26;11.70;1.40
2174;DHT22;1093;51.424;11.764;2024-02-21T13:19:57;11.60;1.40
2174;DHT22;1093;51.424;11.764;2024-02-21T13:22:24;11.60;1.40
2174;DHT22;1093;51.424;11.764;2024-02-21T13:24:52;11.70;1.40
2174;DHT22;1093;51.424;11.764;2024-02-21T13:27:19;11.80;1.40
2174;DHT22;1093;51.424;11.764;2024-02-21T13:29:48;11.90;1.40
2174;DHT22;1093;51.424;11.764;2024-02-21T13:32:15;11.90;1.40
2174;DHT22;1093;51.424;11.764;2024-02-21T13:34:42;11.90;1.40
2174;DHT22;1093;51.424;11.764;2024-02-21T13:37:09;11.90;1.40
2174;DHT22;1093;51.424;11.764;2024-02-21T13:42:58;11.90;1.40
2174;DHT22;1093;51.424;11.764;2024-02-21T13:45:26;11.90;1.40
2174;DHT22;1093;51.424;11.764;2024-02-21T13:47:53;12.00;1.40
2174;DHT22;1093;51.424;11.764;2024-02-21T13:50:23;11.90;1.40
2174;DHT22;1093;51.424;11.764;2024-02-21T13:52:50;12.00;1.40
2174;DHT22;1093;51.424;11.764;2024-02-21T13:55:17;12.00;1.40
2174;DHT22;1093;51.424;11.764;2024-02-21T13:57:44;11.90;1.40
2174;DHT22;1093;51.424;11.764;2024-02-21T14:00:11;11.90;1.40
2174;DHT22;1093;51.424;11.764;2024-02-21T14:02:40;11.90;1.40
2174;DHT22;1093;51.424;11.764;2024-02-21T14:05:07;12.00;1.40
2174;DHT22;1093;51.424;11.764;2024-02-21T14:07:34;12.00;1.40
2174;DHT22;1093;51.424;11.764;2024-02-21T14:10:01;12.00;1.40
2174;DHT22;1093;51.424;11.764;2024-02-21T14:12:29;12.10;1.40
2174;DHT22;1093;51.424;11.764;2024-02-21T14:14:57;12.10;1.40
2174;DHT22;1093;51.424;11.764;2024-02-21T14:17:24;12.10;1.40
2174;DHT22;1093;51.424;11.764;2024-02-21T14:19:53;12.10;1.40
2174;DHT22;1093;51.424;11.764;2024-02-21T14:22:20;12.20;1.40
2174;DHT22;1093;51.424;11.764;2024-02-21T14:24:47;12.20;1.40
2174;DHT22;1093;51.424;11.764;2024-02-21T14:27:14;12.20;1.40
2174;DHT22;1093;51.424;11.764;2024-02-21T14:29:40;12.20;1.40
2174;DHT22;1093;51.424;11.764;2024-02-21T14:32:07;12.10;1.40
2174;DHT22;1093;51.424;11.764;2024-02-21T14:34:35;12.10;1.40
2174;DHT22;1093;51.424;11.764;2024-02-21T14:37:04;12.20;1.40
2174;DHT22;1093;51.424;11.764;2024-02-21T14:39:31;12.20;1.40
2174;DHT22;1093;51.424;11.764;2024-02-21T14:42:00;12.10;1.40
2174;DHT22;1093;51.424;11.764;2024-02-21T14:44:28;12.10;1.40
2174;DHT22;1093;51.424;11.764;2024-02-21T14:46:55;12.10;1.40
2174;DHT22;1093;51.424;11.764;2024-02-21T14:49:22;12.10;1.40
2174;DHT22;1093;51.424;11.764;2024-02-21T14:51:50;12.10;1.40
2174;DHT22;1093;51.424;11.764;2024-02-21T14:54:19;12.10;1.40
2174;DHT22;1093;51.424;11.764;2024-02-21T14:56:46;12.10;1.40
2174;DHT22;1093;51.424;11.764;2024-02-21T14:59:13;12.10;1.40
2174;DHT22;1093;51.424;11.764;2024-02-21T15:01:40;12.00;1.40
2174;DHT22;1093;51.424;11.764;2024-02-21T15:04:07;12.10;1.40
2174;DHT22;1093;51.424;11.764;2024-02-21T15:06:34;12.10;1.40
2174;DHT22;1093;51.424;11.764;2024-02-21T15:09:02;12.00;1.40
2174;DHT22;1093;51.424;11.764;2024-02-21T15:11:33;12.00;1.40
2174;DHT22;1093;51.424;11.764;2024-02-21T15:14:00;12.00;1.40
2174;DHT22;1093;51.424;11.764;2024-02-21T15:16:27;12.00;1.40
2174;DHT22;1093;51.424;11.764;2024-02-21T15:18:54;11.90;1.40
2174;DHT22;1093;51.424;11.764;2024-02-21T15:21:21;11.90;1.40
2174;DHT22;1093;51.424;11.764;2024-02-21T15:23:47;11.80;1.40
2174;DHT22;1093;51.424;11.764;2024-02-21T15:26:14;11.80;1.40
2174;DHT22;1093;51.424;11.764;2024-02-21T15:28:44;11.80;1.40
2174;DHT22;1093;51.424;11.764;2024-02-21T15:31:19;11.70;1.40
2174;DHT22;1093;51.424;11.764;2024-02-21T15:33:48;11.70;1.40
2174;DHT22;1093;51.424;11.764;2024-02-21T15:36:14;11.70;1.40
2174;DHT22;1093;51.424;11.764;2024-02-21T15:38:41;11.70;1.40
2174;DHT22;1093;51.424;11.764;2024-02-21T15:41:11;11.60;1.40
2174;DHT22;1093;51.424;11.764;2024-02-21T15:43:37;11.60;1.40
2174;DHT22;1093;51.424;11.764;2024-02-21T15:46:06;11.60;1.40
2174;DHT22;1093;51.424;11.764;2024-02-21T15:48:33;11.60;1.40
2174;DHT22;1093;51.424;11.764;2024-02-21T15:51:00;11.60;1.40
2174;DHT22;1093;51.424;11.764;2024-02-21T15:53:29;11.50;1.40
2174;DHT22;1093;51.424;11.764;2024-02-21T15:55:56;11.40;1.40
2174;DHT22;1093;51.424;11.764;2024-02-21T15:58:23;11.40;1.40
2174;DHT22;1093;51.424;11.764;2024-02-21T16:00:50;11.40;1.40
2174;DHT22;1093;51.424;11.764;2024-02-21T16:03:18;11.30;1.40
2174;DHT22;1093;51.424;11.764;2024-02-21T16:05:45;11.30;1.40
2174;DHT22;1093;51.424;11.764;2024-02-21T16:08:11;11.30;1.40
2174;DHT22;1093;51.424;11.764;2024-02-21T16:10:38;11.20;1.40
2174;DHT22;1093;51.424;11.764;2024-02-21T16:13:05;11.10;1.40
2174;DHT22;1093;51.424;11.764;2024-02-21T16:15:32;11.10;1.40
2174;DHT22;1093;51.424;11.764;2024-02-21T16:17:58;11.00;1.40
2174;DHT22;1093;51.424;11.764;2024-02-21T16:20:27;11.00;1.40
2174;DHT22;1093;51.424;11.764;2024-02-21T16:22:54;10.90;1.40
2174;DHT22;1093;51.424;11.764;2024-02-21T16:25:24;10.80;1.40
2174;DHT22;1093;51.424;11.764;2024-02-21T16:27:51;10.80;1.40
2174;DHT22;1093;51.424;11.764;2024-02-21T16:30:18;10.80;1.40